Time;durP1;ratioP1;P1;durP2;ratioP2;P2;SDS_P1;SDS_P2;PMS_P1;PMS_P2;Temp;Humidity;BMP_temperature;BMP_pressure;BME280_temperature;BME280_humidity;BME280_pressure;Samples;Min_cycle;Max_cycle;Signal;HPM_P1;HPM_P2
2021/09/07 00:01:45;;;;;;;11.57;6.38;;;27.90;99.90;;;;;;4128582;28;20049;-67
2021/09/07 00:03:50;;;;;;;12.10;6.38;;;28.00;99.90;;;;;;4128260;28;20438;-67
2021/09/07 00:05:55;;;;;;;8.32;5.30;;;28.00;99.90;;;;;;4128505;28;20100;-67
2021/09/07 00:07:59;;;;;;;13.77;5.70;;;28.20;99.90;;;;;;4129099;28;20038;-67
2021/09/07 00:10:06;;;;;;;9.50;5.72;;;28.10;99.90;;;;;;4127269;28;20050;-67
2021/09/07 00:12:11;;;;;;;12.35;5.22;;;28.00;99.90;;;;;;4129374;28;20397;-67
2021/09/07 00:14:16;;;;;;;10.00;5.32;;;28.10;99.90;;;;;;4128231;28;20488;-67
2021/09/07 00:16:20;;;;;;;6.85;5.18;;;28.10;99.90;;;;;;4128109;28;20089;-67
2021/09/07 00:18:25;;;;;;;9.40;4.55;;;28.20;99.90;;;;;;4128579;28;20405;-67
2021/09/07 00:20:30;;;;;;;6.93;4.22;;;28.20;99.90;;;;;;4127692;28;20125;-67
2021/09/07 00:22:35;;;;;;;5.57;4.13;;;28.30;99.90;;;;;;4127211;28;20050;-67
2021/09/07 00:24:40;;;;;;;12.50;4.65;;;28.30;99.90;;;;;;4128199;28;20436;-67
2021/09/07 00:26:45;;;;;;;7.70;4.25;;;28.30;99.90;;;;;;4128508;28;20137;-66
2021/09/07 00:28:50;;;;;;;8.95;4.55;;;28.30;99.90;;;;;;4127994;28;20105;-67
2021/09/07 00:30:55;;;;;;;8.40;4.78;;;28.30;99.90;;;;;;4128635;28;20034;-67
2021/09/07 00:33:00;;;;;;;11.38;4.70;;;28.30;99.90;;;;;;4128467;28;20394;-67
2021/09/07 00:35:05;;;;;;;8.20;4.30;;;28.50;99.90;;;;;;4126847;28;20580;-67
2021/09/07 00:37:10;;;;;;;7.20;3.97;;;28.50;99.90;;;;;;4128564;28;20042;-67
2021/09/07 00:39:15;;;;;;;7.07;4.00;;;28.50;99.90;;;;;;4128565;28;20448;-67
2021/09/07 00:41:19;;;;;;;5.50;4.43;;;28.60;99.90;;;;;;4128994;28;20453;-67
2021/09/07 00:43:24;;;;;;;5.38;4.10;;;28.70;99.90;;;;;;4129043;28;20046;-67
2021/09/07 00:45:29;;;;;;;10.07;3.92;;;28.60;99.90;;;;;;4128669;28;20089;-67
2021/09/07 00:47:33;;;;;;;6.00;3.90;;;28.70;99.90;;;;;;4128570;28;20038;-67
2021/09/07 00:49:38;;;;;;;8.20;4.50;;;28.70;99.90;;;;;;4127748;28;20050;-67
2021/09/07 00:51:42;;;;;;;11.75;4.88;;;28.60;99.90;;;;;;4131080;28;20078;-67
2021/09/07 00:54:07;;;;;;;7.45;4.55;;;28.70;99.90;;;;;;4131227;28;20046;-67
2021/09/07 00:56:12;;;;;;;6.85;5.10;;;28.70;99.90;;;;;;4131819;28;20069;-67
2021/09/07 00:58:17;;;;;;;9.90;5.38;;;28.70;99.90;;;;;;4132268;28;20046;-67
2021/09/07 01:00:21;;;;;;;8.55;4.75;;;28.60;99.90;;;;;;4132077;28;20053;-67
2021/09/07 01:02:26;;;;;;;7.72;4.38;;;28.60;99.90;;;;;;4132201;28;20432;-67
2021/09/07 01:04:33;;;;;;;7.30;4.63;;;28.60;99.90;;;;;;4131486;28;20133;-67
2021/09/07 01:06:41;;;;;;;9.52;5.00;;;28.60;99.90;;;;;;4130360;28;20046;-67
2021/09/07 01:08:46;;;;;;;9.98;5.80;;;28.70;99.90;;;;;;4131173;28;20054;-67
2021/09/07 01:10:52;;;;;;;9.27;5.28;;;28.70;99.90;;;;;;4131122;28;20050;-67
2021/09/07 01:12:57;;;;;;;7.35;5.00;;;28.80;99.90;;;;;;4129593;28;20077;-67
2021/09/07 01:15:02;;;;;;;12.82;5.13;;;28.80;99.90;;;;;;4127218;28;20054;-66
2021/09/07 01:17:12;;;;;;;8.35;5.38;;;28.90;99.90;;;;;;4129135;28;20473;-67
2021/09/07 01:19:19;;;;;;;7.05;4.72;;;28.80;99.90;;;;;;4126190;28;20260;-67
2021/09/07 01:21:24;;;;;;;8.05;5.53;;;28.90;99.90;;;;;;4128649;28;20575;-67
2021/09/07 01:23:28;;;;;;;10.13;5.10;;;29.00;99.90;;;;;;4129697;28;20050;-67
2021/09/07 01:25:33;;;;;;;8.82;4.60;;;29.00;99.90;;;;;;4129395;28;20058;-67
2021/09/07 01:27:38;;;;;;;10.65;5.03;;;28.80;99.90;;;;;;4128938;28;20046;-67
2021/09/07 01:29:43;;;;;;;10.13;4.90;;;28.80;99.90;;;;;;4128902;28;20061;-67
2021/09/07 01:31:47;;;;;;;8.38;4.95;;;28.90;99.90;;;;;;4129035;28;20054;-67
2021/09/07 01:33:53;;;;;;;14.27;5.05;;;28.80;99.90;;;;;;4129252;28;20172;-67
2021/09/07 01:35:58;;;;;;;9.80;5.32;;;28.80;99.90;;;;;;4128538;28;20425;-67
2021/09/07 01:38:03;;;;;;;9.23;4.90;;;28.90;99.90;;;;;;4129158;28;20113;-67
2021/09/07 01:40:08;;;;;;;11.85;5.80;;;29.00;99.90;;;;;;4128990;28;20042;-67
2021/09/07 01:42:13;;;;;;;7.45;4.82;;;29.00;99.90;;;;;;4128859;28;20046;-67
2021/09/07 01:44:18;;;;;;;8.15;5.38;;;29.00;99.90;;;;;;4129137;28;20153;-67
2021/09/07 01:46:23;;;;;;;6.63;4.40;;;29.00;99.90;;;;;;4128832;28;20054;-67
2021/09/07 01:48:27;;;;;;;9.23;5.18;;;29.10;99.90;;;;;;4128457;28;20053;-67
2021/09/07 01:50:32;;;;;;;9.18;5.40;;;29.30;99.90;;;;;;4127929;28;20416;-67
2021/09/07 01:52:37;;;;;;;9.65;5.30;;;29.30;99.90;;;;;;4128631;28;20113;-67
2021/09/07 01:54:43;;;;;;;12.95;6.15;;;29.20;99.90;;;;;;4128988;28;20106;-66
2021/09/07 01:56:49;;;;;;;13.45;6.00;;;29.30;99.90;;;;;;4128909;28;20133;-66
2021/09/07 01:58:54;;;;;;;7.95;5.28;;;29.20;99.90;;;;;;4128327;28;20077;-66
2021/09/07 02:00:59;;;;;;;11.20;5.10;;;29.30;99.90;;;;;;4160151;28;20064;-67
2021/09/07 02:03:06;;;;;;;7.85;4.50;;;29.30;99.90;;;;;;4128000;28;20058;-67
2021/09/07 02:05:11;;;;;;;7.53;4.68;;;29.50;99.90;;;;;;4127585;28;20035;-67
2021/09/07 02:07:16;;;;;;;9.52;5.10;;;29.60;99.90;;;;;;4127915;28;20105;-67
2021/09/07 02:09:21;;;;;;;7.55;4.60;;;29.60;99.90;;;;;;4128635;28;20046;-67
2021/09/07 02:11:26;;;;;;;8.50;4.97;;;29.70;99.90;;;;;;4128016;28;20060;-67
2021/09/07 02:13:30;;;;;;;15.30;5.85;;;29.60;99.90;;;;;;4124482;28;20113;-67
2021/09/07 02:15:37;;;;;;;11.75;5.75;;;29.80;99.90;;;;;;4128216;28;20065;-67
2021/09/07 02:17:44;;;;;;;9.48;4.40;;;29.80;99.90;;;;;;4128777;28;20433;-67
2021/09/07 02:19:48;;;;;;;7.95;4.13;;;29.90;99.90;;;;;;4128196;28;20425;-68
2021/09/07 02:21:54;;;;;;;7.32;3.83;;;29.80;99.90;;;;;;4125985;28;20471;-67
2021/09/07 02:24:01;;;;;;;5.53;3.60;;;29.80;99.90;;;;;;4129003;28;20486;-68
2021/09/07 02:26:06;;;;;;;7.55;3.72;;;29.80;99.90;;;;;;4129461;28;20101;-67
2021/09/07 02:28:12;;;;;;;8.77;3.40;;;29.90;99.90;;;;;;4127393;28;20056;-67
2021/09/07 02:30:18;;;;;;;7.88;3.20;;;29.90;99.90;;;;;;4130507;28;20046;-67
2021/09/07 02:32:27;;;;;;;6.00;3.05;;;29.90;99.90;;;;;;4130583;28;20085;-67
2021/09/07 02:34:32;;;;;;;5.85;3.33;;;29.90;99.90;;;;;;4124622;28;20042;-68
2021/09/07 02:36:37;;;;;;;4.90;3.50;;;30.00;99.90;;;;;;4125404;28;20054;-68
2021/09/07 02:38:42;;;;;;;6.88;3.65;;;30.20;99.90;;;;;;4124252;28;20128;-68
2021/09/07 02:40:48;;;;;;;4.80;3.30;;;30.20;99.90;;;;;;4159080;28;20052;-68
2021/09/07 02:42:54;;;;;;;5.43;2.90;;;30.20;99.90;;;;;;4127126;28;20046;-68
2021/09/07 02:45:00;;;;;;;5.45;2.60;;;30.30;99.90;;;;;;4128020;28;20050;-68
2021/09/07 02:47:06;;;;;;;3.20;2.42;;;30.30;99.90;;;;;;4141696;28;20050;-67
2021/09/07 02:49:12;;;;;;;4.40;2.70;;;30.40;99.90;;;;;;4127476;28;20085;-67
2021/09/07 02:51:16;;;;;;;4.70;2.35;;;30.40;99.90;;;;;;4127400;28;20326;-67
2021/09/07 02:53:21;;;;;;;4.03;2.70;;;30.40;99.90;;;;;;4128146;28;20046;-67
2021/09/07 02:55:30;;;;;;;4.40;2.78;;;30.30;99.90;;;;;;4125412;28;20054;-67
2021/09/07 02:57:34;;;;;;;5.72;2.63;;;30.30;99.90;;;;;;4127831;28;20781;-67
2021/09/07 02:59:39;;;;;;;3.63;2.70;;;30.30;99.90;;;;;;4127943;28;20513;-67
2021/09/07 03:01:45;;;;;;;3.80;2.47;;;30.40;99.90;;;;;;4127289;28;20042;-67
2021/09/07 03:03:51;;;;;;;4.22;2.50;;;30.50;99.90;;;;;;4127610;28;20501;-67
2021/09/07 03:05:58;;;;;;;7.38;2.80;;;30.60;99.90;;;;;;4127167;28;20519;-67
2021/09/07 03:08:03;;;;;;;4.90;2.60;;;30.60;99.90;;;;;;4126250;28;20063;-67
2021/09/07 03:10:07;;;;;;;3.30;2.20;;;30.50;99.90;;;;;;4127491;28;20141;-67
2021/09/07 03:12:12;;;;;;;3.97;2.10;;;30.60;99.90;;;;;;4127553;28;20527;-66
2021/09/07 03:14:20;;;;;;;2.92;1.92;;;30.70;99.90;;;;;;4127142;28;20504;-66
2021/09/07 03:16:25;;;;;;;8.77;2.80;;;30.70;99.90;;;;;;4127060;28;20050;-67
2021/09/07 03:18:31;;;;;;;6.68;2.42;;;30.50;99.90;;;;;;4127832;28;20117;-67
2021/09/07 03:20:36;;;;;;;4.07;2.08;;;30.60;99.90;;;;;;4127421;28;20138;-67
2021/09/07 03:22:40;;;;;;;4.13;2.00;;;30.70;99.90;;;;;;4127434;28;20054;-67
2021/09/07 03:24:46;;;;;;;3.90;1.90;;;30.80;99.90;;;;;;4127891;28;20057;-67
2021/09/07 03:26:52;;;;;;;7.57;1.90;;;31.00;99.90;;;;;;4127639;28;20066;-67
2021/09/07 03:28:57;;;;;;;3.85;1.60;;;31.00;99.90;;;;;;4127812;28;20125;-67
2021/09/07 03:31:02;;;;;;;3.53;1.58;;;31.00;99.90;;;;;;4128076;28;20508;-67
2021/09/07 03:33:07;;;;;;;4.95;1.77;;;31.10;99.90;;;;;;4126599;28;20454;-67
2021/09/07 03:35:12;;;;;;;3.97;1.73;;;31.20;99.90;;;;;;4126200;28;20073;-67
2021/09/07 03:37:17;;;;;;;6.00;1.80;;;31.30;99.90;;;;;;4127246;28;20050;-67
2021/09/07 03:39:22;;;;;;;1.83;1.50;;;31.30;99.90;;;;;;4127754;28;20041;-67
2021/09/07 03:41:26;;;;;;;2.88;1.92;;;31.30;99.90;;;;;;4127705;28;20046;-67
2021/09/07 03:43:31;;;;;;;3.85;1.67;;;31.30;99.90;;;;;;4127425;28;20046;-67
2021/09/07 03:45:36;;;;;;;4.00;2.00;;;31.40;99.90;;;;;;4119885;28;20512;-67
2021/09/07 03:47:42;;;;;;;2.53;1.63;;;31.30;99.90;;;;;;4126945;28;20054;-66
2021/09/07 03:49:48;;;;;;;4.53;1.88;;;31.40;99.90;;;;;;4127035;28;20075;-67
2021/09/07 03:51:54;;;;;;;2.83;1.65;;;31.40;99.90;;;;;;4125306;28;20038;-67
2021/09/07 03:53:59;;;;;;;2.83;2.17;;;31.50;99.90;;;;;;4125545;28;20587;-67
2021/09/07 03:56:04;;;;;;;4.15;2.05;;;31.50;99.90;;;;;;4127232;28;20410;-67
2021/09/07 03:58:09;;;;;;;6.10;2.15;;;31.30;99.90;;;;;;4127891;28;20038;-67
2021/09/07 04:00:16;;;;;;;3.28;1.80;;;31.30;99.90;;;;;;4128286;28;20141;-66
2021/09/07 04:02:23;;;;;;;8.00;2.05;;;31.30;99.90;;;;;;4127059;28;20501;-66
2021/09/07 04:04:28;;;;;;;4.35;1.85;;;31.40;99.90;;;;;;4126961;28;20050;-66
2021/09/07 04:06:33;;;;;;;3.55;1.65;;;31.50;99.90;;;;;;4128684;28;20093;-67
2021/09/07 04:08:38;;;;;;;11.15;1.83;;;31.60;99.90;;;;;;4129171;28;20586;-67
2021/09/07 04:10:42;;;;;;;3.30;1.60;;;31.60;99.90;;;;;;4128846;28;20050;-67
2021/09/07 04:12:49;;;;;;;2.03;1.45;;;31.60;99.90;;;;;;4129334;28;20054;-67
2021/09/07 04:14:54;;;;;;;4.85;1.77;;;31.80;99.90;;;;;;4129060;28;20108;-66
2021/09/07 04:17:01;;;;;;;5.13;2.00;;;31.90;99.90;;;;;;4128964;28;20125;-66
2021/09/07 04:19:06;;;;;;;4.47;2.20;;;32.00;99.90;;;;;;4129243;28;20073;-68
2021/09/07 04:21:12;;;;;;;3.60;1.80;;;31.90;99.90;;;;;;4128758;28;20524;-67
2021/09/07 04:23:17;;;;;;;5.25;2.00;;;31.80;99.90;;;;;;4126969;28;20058;-67
2021/09/07 04:25:21;;;;;;;2.75;1.73;;;31.80;99.90;;;;;;4123017;28;20095;-68
2021/09/07 04:27:26;;;;;;;10.70;6.30;;;31.60;99.90;;;;;;4125536;28;20452;-68
2021/09/07 04:29:31;;;;;;;5.00;2.47;;;31.50;99.90;;;;;;4125859;28;20053;-67
2021/09/07 04:31:36;;;;;;;2.25;1.55;;;31.40;99.90;;;;;;4126179;28;20540;-64
2021/09/07 04:33:40;;;;;;;2.97;1.80;;;31.60;99.90;;;;;;4126380;28;20058;-68
2021/09/07 04:35:44;;;;;;;2.92;1.27;;;31.80;99.90;;;;;;4126283;28;20061;-67
2021/09/07 04:37:49;;;;;;;3.45;1.30;;;31.80;99.90;;;;;;4125708;28;20046;-66
2021/09/07 04:39:53;;;;;;;3.00;1.50;;;31.80;99.90;;;;;;4126804;28;20050;-67
2021/09/07 04:41:58;;;;;;;2.13;1.50;;;32.00;99.90;;;;;;4115771;28;20051;-67
2021/09/07 04:44:03;;;;;;;3.20;1.70;;;32.00;99.90;;;;;;4116098;28;20038;-67
2021/09/07 04:46:11;;;;;;;2.72;1.45;;;32.10;99.90;;;;;;4127120;28;20046;-67
2021/09/07 04:48:16;;;;;;;1.85;1.40;;;32.10;99.90;;;;;;4126565;28;20119;-67
2021/09/07 04:50:21;;;;;;;3.47;1.40;;;32.30;99.90;;;;;;4126509;28;20375;-67
2021/09/07 04:52:25;;;;;;;2.08;1.45;;;32.40;99.90;;;;;;4126714;28;20054;-67
2021/09/07 04:54:30;;;;;;;1.80;1.30;;;32.40;99.90;;;;;;4126645;28;20050;-67
2021/09/07 04:56:34;;;;;;;2.47;1.40;;;32.40;99.90;;;;;;4126744;28;20050;-67
2021/09/07 04:58:38;;;;;;;2.38;1.58;;;32.40;99.90;;;;;;4126687;28;20049;-67
2021/09/07 05:00:43;;;;;;;2.88;1.60;;;32.20;99.90;;;;;;4126796;28;20154;-67
2021/09/07 05:02:48;;;;;;;3.20;1.73;;;32.10;99.90;;;;;;4126754;28;20517;-67
2021/09/07 05:04:52;;;;;;;3.20;1.50;;;32.10;99.90;;;;;;4127457;28;20039;-66
2021/09/07 05:06:57;;;;;;;3.08;1.20;;;32.10;99.90;;;;;;4129138;28;20043;-66
2021/09/07 05:09:01;;;;;;;1.88;1.25;;;32.00;99.90;;;;;;4129553;28;20046;-66
2021/09/07 05:11:06;;;;;;;1.75;0.93;;;32.10;99.90;;;;;;4128939;28;20092;-66
2021/09/07 05:13:10;;;;;;;1.98;1.20;;;32.20;99.90;;;;;;4118629;28;20433;-66
2021/09/07 05:15:15;;;;;;;1.63;1.10;;;32.30;99.90;;;;;;4129332;28;20050;-66
2021/09/07 05:17:20;;;;;;;2.00;1.00;;;32.40;99.90;;;;;;4129015;28;20827;-66
2021/09/07 05:19:24;;;;;;;3.28;1.30;;;32.40;99.90;;;;;;4128517;28;20070;-67
2021/09/07 05:21:29;;;;;;;3.45;1.20;;;32.50;99.90;;;;;;4128650;28;20045;-67
2021/09/07 05:23:33;;;;;;;1.60;1.20;;;32.60;99.90;;;;;;4128985;28;20042;-68
2021/09/07 05:25:38;;;;;;;2.75;1.20;;;32.70;99.50;;;;;;4129304;28;20096;-67
2021/09/07 05:27:42;;;;;;;1.83;1.13;;;32.60;99.90;;;;;;4129199;28;20200;-66
2021/09/07 05:29:49;;;;;;;2.97;1.20;;;32.60;99.90;;;;;;4128784;28;20065;-66
2021/09/07 05:31:53;;;;;;;4.13;1.33;;;32.50;99.90;;;;;;4128721;28;20046;-67
2021/09/07 05:33:59;;;;;;;2.38;1.17;;;32.50;99.60;;;;;;4128999;28;20118;-67
2021/09/07 05:36:03;;;;;;;4.22;1.27;;;32.40;99.30;;;;;;4128508;28;20050;-66
2021/09/07 05:38:08;;;;;;;2.20;1.23;;;32.30;99.90;;;;;;4125320;28;20051;-66
2021/09/07 05:40:14;;;;;;;2.42;1.27;;;32.20;99.90;;;;;;4128612;28;20422;-66
2021/09/07 05:42:18;;;;;;;2.05;1.20;;;32.20;99.90;;;;;;4132005;28;20078;-66
2021/09/07 05:44:23;;;;;;;3.08;1.25;;;32.10;99.90;;;;;;4131822;28;20073;-67
2021/09/07 05:46:28;;;;;;;2.05;1.13;;;32.20;99.90;;;;;;4130480;28;20065;-67
2021/09/07 05:48:32;;;;;;;2.80;1.25;;;32.30;99.90;;;;;;4131950;28;20049;-67
2021/09/07 05:50:37;;;;;;;2.63;1.35;;;32.40;99.90;;;;;;4132113;28;20057;-66
2021/09/07 05:52:43;;;;;;;1.40;1.30;;;32.40;99.90;;;;;;4131805;28;20357;-67
2021/09/07 05:54:48;;;;;;;2.08;1.20;;;32.40;99.90;;;;;;4131842;28;20132;-67
2021/09/07 05:56:54;;;;;;;4.97;1.48;;;32.40;99.90;;;;;;4131610;28;20473;-67
2021/09/07 05:58:59;;;;;;;3.15;1.35;;;32.40;99.90;;;;;;4131779;28;20038;-67
2021/09/07 06:01:03;;;;;;;2.53;1.40;;;32.40;99.90;;;;;;4131657;28;20541;-66
2021/09/07 06:03:08;;;;;;;2.55;1.48;;;32.50;99.90;;;;;;4131221;28;20129;-66
2021/09/07 06:05:13;;;;;;;3.55;1.50;;;32.60;99.90;;;;;;4130952;28;20058;-66
2021/09/07 06:07:18;;;;;;;2.67;1.50;;;32.50;99.90;;;;;;4131070;28;20039;-66
2021/09/07 06:09:22;;;;;;;3.15;1.27;;;32.50;99.90;;;;;;4124153;28;20109;-66
2021/09/07 06:11:26;;;;;;;2.90;1.60;;;32.50;99.90;;;;;;4131299;28;20165;-67
2021/09/07 06:13:31;;;;;;;5.07;1.40;;;32.50;99.90;;;;;;4131632;28;20070;-67
2021/09/07 06:15:36;;;;;;;3.53;1.42;;;32.50;99.90;;;;;;4131314;28;20054;-67
2021/09/07 06:17:40;;;;;;;2.40;1.40;;;32.50;99.90;;;;;;4131212;28;20054;-67
2021/09/07 06:19:45;;;;;;;2.92;1.50;;;32.50;99.90;;;;;;4130859;28;20485;-67
2021/09/07 06:21:49;;;;;;;3.60;1.80;;;32.60;99.90;;;;;;4131186;28;20500;-66
2021/09/07 06:23:54;;;;;;;2.42;1.52;;;32.70;99.90;;;;;;4131071;28;20050;-66
2021/09/07 06:25:59;;;;;;;2.20;1.50;;;32.70;99.90;;;;;;4131082;28;20298;-66
2021/09/07 06:28:04;;;;;;;2.88;1.25;;;32.50;99.90;;;;;;4131187;28;20041;-66
2021/09/07 06:30:10;;;;;;;3.72;1.40;;;32.40;99.90;;;;;;4131235;28;20133;-67
2021/09/07 06:32:16;;;;;;;2.53;1.58;;;32.60;99.90;;;;;;4131144;28;20632;-67
2021/09/07 06:34:24;;;;;;;2.28;1.30;;;32.70;99.90;;;;;;4131086;28;20117;-67
2021/09/07 06:36:29;;;;;;;2.28;1.50;;;32.90;99.90;;;;;;4131221;28;20215;-67
2021/09/07 06:38:34;;;;;;;2.30;1.27;;;33.10;99.90;;;;;;4130708;28;20044;-67
2021/09/07 06:40:40;;;;;;;9.07;1.80;;;33.10;99.90;;;;;;4131001;28;20425;-67
2021/09/07 06:42:45;;;;;;;5.82;1.70;;;33.00;99.90;;;;;;4131151;28;20493;-67
2021/09/07 06:44:50;;;;;;;4.57;1.63;;;33.00;99.90;;;;;;4129981;28;20079;-67
2021/09/07 06:46:54;;;;;;;3.58;1.80;;;33.00;99.90;;;;;;4130987;28;20279;-68
2021/09/07 06:48:59;;;;;;;2.47;1.60;;;32.90;99.90;;;;;;4122154;28;20046;-68
2021/09/07 06:51:03;;;;;;;3.60;1.42;;;32.80;99.90;;;;;;4130336;28;20046;-68
2021/09/07 06:53:08;;;;;;;2.05;1.60;;;32.80;99.90;;;;;;4130978;28;20046;-67
2021/09/07 06:55:12;;;;;;;1.83;1.45;;;32.80;99.90;;;;;;4130972;28;20054;-67
2021/09/07 06:57:17;;;;;;;5.20;1.90;;;32.70;99.90;;;;;;4130856;28;20430;-67
2021/09/07 06:59:21;;;;;;;4.40;1.90;;;32.50;99.90;;;;;;4130280;28;20551;-67
2021/09/07 07:01:26;;;;;;;4.20;1.77;;;32.30;99.90;;;;;;4130410;28;20141;-67
2021/09/07 07:03:31;;;;;;;4.57;2.03;;;32.20;99.90;;;;;;4130629;28;20050;-67
2021/09/07 07:05:37;;;;;;;3.33;1.85;;;32.30;99.90;;;;;;4130069;28;20424;-67
2021/09/07 07:07:41;;;;;;;3.10;1.58;;;32.30;99.30;;;;;;4130599;28;20537;-67
2021/09/07 07:09:46;;;;;;;2.25;1.70;;;32.30;99.40;;;;;;4124270;28;20567;-67
2021/09/07 07:11:50;;;;;;;2.83;1.90;;;32.50;99.90;;;;;;4129859;28;20062;-67
2021/09/07 07:13:54;;;;;;;4.65;2.10;;;32.70;99.90;;;;;;4130530;28;20359;-67
2021/09/07 07:15:59;;;;;;;6.32;2.40;;;32.60;99.30;;;;;;4129488;28;20038;-69
2021/09/07 07:18:03;;;;;;;3.70;1.98;;;32.60;98.80;;;;;;4130222;28;20501;-68
2021/09/07 07:20:08;;;;;;;2.35;1.77;;;32.30;98.50;;;;;;4129861;28;20113;-67
2021/09/07 07:22:14;;;;;;;2.25;1.55;;;32.20;99.90;;;;;;4127569;28;20058;-67
2021/09/07 07:24:19;;;;;;;2.58;1.40;;;31.90;99.90;;;;;;4128161;28;20131;-67
2021/09/07 07:26:35;;;;;;;4.60;1.90;;;31.50;99.70;;;;;;4127424;28;20046;-69
2021/09/07 07:28:40;;;;;;;2.30;1.50;;;31.20;99.90;;;;;;4119878;28;20457;-67
2021/09/07 07:30:47;;;;;;;1.75;1.40;;;31.30;99.90;;;;;;4127376;28;20038;-67
2021/09/07 07:32:52;;;;;;;1.70;1.35;;;31.50;99.90;;;;;;4126907;28;20050;-68
2021/09/07 07:34:57;;;;;;;3.35;1.50;;;31.40;99.90;;;;;;4127615;28;20057;-68
2021/09/07 07:37:04;;;;;;;3.30;1.38;;;31.30;99.90;;;;;;4127692;28;20509;-68
2021/09/07 07:39:08;;;;;;;1.88;1.30;;;31.50;99.90;;;;;;4127523;28;20373;-68
2021/09/07 07:41:13;;;;;;;4.38;1.33;;;31.70;99.90;;;;;;4127752;28;20568;-68
2021/09/07 07:43:18;;;;;;;2.13;1.42;;;31.70;99.90;;;;;;4127768;28;20354;-68
2021/09/07 07:45:22;;;;;;;2.47;1.60;;;31.60;99.90;;;;;;4127836;28;20469;-68
2021/09/07 07:47:27;;;;;;;2.20;1.55;;;31.70;99.90;;;;;;4127623;28;20050;-68
2021/09/07 07:49:32;;;;;;;3.25;1.70;;;31.70;99.90;;;;;;4127445;28;20046;-68
2021/09/07 07:51:36;;;;;;;3.83;1.63;;;31.70;99.90;;;;;;4127225;28;20097;-69
2021/09/07 07:53:40;;;;;;;2.30;1.60;;;31.60;99.90;;;;;;4127726;28;20416;-68
2021/09/07 07:55:46;;;;;;;3.38;1.55;;;31.60;99.90;;;;;;4127666;28;20113;-68
2021/09/07 07:58:00;;;;;;;1.98;1.50;;;31.80;99.90;;;;;;4127849;28;20674;-68
2021/09/07 08:00:05;;;;;;;2.13;1.30;;;32.00;99.90;;;;;;4126798;28;20149;-68
2021/09/07 08:02:11;;;;;;;4.82;1.60;;;32.10;99.20;;;;;;4119410;28;20506;-69
2021/09/07 08:04:29;;;;;;;2.70;1.60;;;32.30;99.50;;;;;;4126182;28;20655;-72
2021/09/07 08:06:34;;;;;;;2.20;1.67;;;32.20;99.50;;;;;;4126128;28;20045;-70
2021/09/07 08:08:38;;;;;;;4.53;2.05;;;32.20;98.90;;;;;;4125013;28;20055;-70
2021/09/07 08:10:43;;;;;;;3.38;1.65;;;32.10;99.10;;;;;;4123243;28;20437;-70
2021/09/07 08:12:49;;;;;;;2.20;1.67;;;32.10;99.70;;;;;;4126375;28;20042;-69
2021/09/07 08:14:54;;;;;;;3.03;2.00;;;31.90;99.50;;;;;;4125650;28;20066;-70
2021/09/07 08:16:58;;;;;;;4.35;1.80;;;32.00;99.10;;;;;;4126086;28;20042;-69
2021/09/07 08:19:03;;;;;;;4.00;2.00;;;32.00;99.10;;;;;;4125848;28;20038;-70
2021/09/07 08:21:08;;;;;;;5.78;1.95;;;31.90;98.60;;;;;;4126848;28;20050;-69
2021/09/07 08:23:12;;;;;;;4.68;1.70;;;32.10;98.50;;;;;;4128026;28;20129;-70
2021/09/07 08:25:16;;;;;;;2.28;1.70;;;32.00;99.10;;;;;;4128847;28;20050;-70
2021/09/07 08:27:21;;;;;;;2.83;2.05;;;32.10;99.10;;;;;;4128157;28;20050;-70
2021/09/07 08:29:25;;;;;;;3.50;1.90;;;32.20;99.30;;;;;;4128350;28;20112;-70
2021/09/07 08:31:29;;;;;;;3.30;2.28;;;32.30;99.10;;;;;;4127532;28;20125;-70
2021/09/07 08:33:35;;;;;;;4.10;2.30;;;32.30;98.90;;;;;;4129238;28;20389;-70
2021/09/07 08:35:39;;;;;;;3.05;2.00;;;32.40;99.20;;;;;;4125543;28;20082;-69
2021/09/07 08:37:43;;;;;;;2.42;1.92;;;32.40;99.80;;;;;;4128354;28;20585;-69
2021/09/07 08:39:48;;;;;;;3.15;2.00;;;32.40;99.10;;;;;;4128217;28;20142;-69
2021/09/07 08:41:52;;;;;;;5.40;2.15;;;32.50;98.50;;;;;;4128560;28;20042;-69
2021/09/07 08:43:56;;;;;;;3.78;2.00;;;32.40;98.50;;;;;;4129070;28;20034;-69
2021/09/07 08:46:01;;;;;;;2.80;2.30;;;32.40;98.70;;;;;;4127648;28;20509;-69
2021/09/07 08:48:05;;;;;;;4.00;2.20;;;32.40;98.20;;;;;;4126928;28;20046;-69
2021/09/07 08:50:12;;;;;;;5.63;2.67;;;32.40;98.50;;;;;;4128459;28;20049;-70
2021/09/07 08:52:18;;;;;;;4.05;2.33;;;32.40;98.10;;;;;;4128813;28;20074;-70
2021/09/07 08:54:22;;;;;;;3.53;2.55;;;32.30;97.20;;;;;;4127029;28;20047;-70
2021/09/07 08:56:27;;;;;;;2.65;2.17;;;32.30;97.90;;;;;;4128428;28;20546;-69
2021/09/07 08:58:32;;;;;;;5.13;2.38;;;32.30;98.00;;;;;;4128902;28;20046;-70
2021/09/07 09:00:36;;;;;;;3.45;2.38;;;32.30;98.00;;;;;;4128871;28;20070;-70
2021/09/07 09:02:43;;;;;;;4.25;2.50;;;32.30;98.70;;;;;;4142547;28;20080;-70
2021/09/07 09:04:49;;;;;;;2.97;2.40;;;32.50;98.60;;;;;;4127359;28;20492;-70
2021/09/07 09:06:54;;;;;;;2.95;2.28;;;32.50;98.10;;;;;;4123368;28;20046;-69
2021/09/07 09:09:06;;;;;;;5.22;2.40;;;32.50;98.20;;;;;;4127752;28;20096;-70
2021/09/07 09:11:12;;;;;;;;;;;32.40;98.10;;;;;;4126584;28;20132;-70
2021/09/07 09:13:19;;;;;;;6.05;2.33;;;32.50;98.00;;;;;;4131112;28;19922;-70
2021/09/07 09:15:23;;;;;;;6.35;2.50;;;32.50;97.30;;;;;;4131090;28;20078;-70
2021/09/07 09:17:31;;;;;;;3.20;2.67;;;32.50;97.40;;;;;;4128988;28;20061;-70
2021/09/07 09:19:50;;;;;;;3.42;2.50;;;32.40;97.80;;;;;;4130771;28;20046;-70
2021/09/07 09:21:55;;;;;;;5.13;2.58;;;32.50;98.40;;;;;;4130140;28;20061;-70
2021/09/07 09:24:16;;;;;;;2.60;2.40;;;32.50;98.90;;;;;;4131068;28;20081;-70
2021/09/07 09:26:20;;;;;;;7.97;2.60;;;32.40;98.10;;;;;;4131061;28;20116;-70
2021/09/07 09:28:25;;;;;;;4.65;2.83;;;32.30;97.70;;;;;;4130842;28;20042;-70
2021/09/07 09:30:34;;;;;;;4.50;2.60;;;32.30;97.50;;;;;;4129255;28;20253;-70
2021/09/07 09:32:49;;;;;;;3.50;2.75;;;32.30;98.10;;;;;;4131138;28;20057;-70
2021/09/07 09:34:53;;;;;;;3.60;2.88;;;32.40;98.60;;;;;;4129651;28;20133;-70
2021/09/07 09:37:16;;;;;;;3.55;2.80;;;32.40;98.50;;;;;;4129421;28;20061;-69
2021/09/07 09:39:53;;;;;;;4.07;2.97;;;32.40;97.90;;;;;;4130722;28;20052;-69
2021/09/07 09:41:57;;;;;;;5.00;2.90;;;32.40;98.60;;;;;;4129296;28;20541;-70
2021/09/07 09:44:07;;;;;;;3.05;2.75;;;32.30;98.10;;;;;;4128483;28;20148;-69
2021/09/07 09:46:25;;;;;;;3.35;2.88;;;32.20;99.20;;;;;;4129315;28;20034;-70
2021/09/07 09:48:31;;;;;;;2.95;2.50;;;32.30;99.10;;;;;;4131360;28;20077;-69
2021/09/07 09:50:40;;;;;;;6.43;2.67;;;32.30;99.00;;;;;;4130565;28;20058;-69
2021/09/07 09:52:47;;;;;;;3.20;2.90;;;32.30;98.80;;;;;;4131336;28;20085;-69
2021/09/07 09:54:51;;;;;;;4.80;2.75;;;32.30;99.20;;;;;;4131523;28;20060;-70
2021/09/07 09:56:58;;;;;;;4.20;2.92;;;32.30;99.50;;;;;;4128803;28;20051;-70
2021/09/07 09:59:02;;;;;;;5.75;3.05;;;32.40;99.00;;;;;;4130552;28;20042;-69
2021/09/07 10:01:06;;;;;;;4.13;3.20;;;32.40;98.40;;;;;;4130619;28;20496;-68
2021/09/07 10:03:12;;;;;;;5.57;2.70;;;32.40;97.80;;;;;;4130555;28;20042;-68
2021/09/07 10:05:17;;;;;;;6.32;3.20;;;32.40;97.90;;;;;;4130636;28;20170;-69
2021/09/07 10:07:41;;;;;;;8.82;2.97;;;32.40;97.80;;;;;;4127568;28;20109;-68
2021/09/07 10:09:48;;;;;;;6.53;3.15;;;32.30;97.90;;;;;;4132027;28;20046;-68
2021/09/07 10:12:05;;;;;;;8.27;3.30;;;32.40;98.00;;;;;;4130781;28;20105;-68
2021/09/07 10:14:13;;;;;;;3.55;3.22;;;32.40;97.80;;;;;;4129748;28;20053;-67
2021/09/07 10:18:52;;;;;;;3.67;3.28;;;32.40;97.60;;;;;;4130299;28;20062;-67
2021/09/07 10:25:49;;;;;;;5.90;3.33;;;32.40;97.90;;;;;;4129950;28;20080;-67
2021/09/07 10:28:05;;;;;;;3.60;2.85;;;32.40;98.00;;;;;;4129933;28;20389;-69
2021/09/07 10:30:30;;;;;;;3.55;3.05;;;32.30;98.00;;;;;;4122693;28;20153;-67
2021/09/07 10:32:40;;;;;;;6.90;3.25;;;32.30;98.20;;;;;;4156877;28;20544;-67
2021/09/07 10:35:12;;;;;;;5.30;2.92;;;32.20;98.30;;;;;;4157433;28;20546;-68
2021/09/07 10:37:17;;;;;;;7.15;3.58;;;32.20;98.50;;;;;;4159681;28;20423;-68
2021/09/07 10:39:42;;;;;;;6.72;3.55;;;32.30;98.70;;;;;;4143514;28;20499;-67
2021/09/07 10:42:06;;;;;;;4.80;3.15;;;32.30;98.80;;;;;;4142001;28;20070;-70
2021/09/07 10:44:50;;;;;;;4.53;3.30;;;32.20;98.90;;;;;;4112354;28;20042;-70
2021/09/07 10:47:04;;;;;;;3.85;2.88;;;32.20;99.00;;;;;;4105562;28;20183;-69
2021/09/07 10:49:48;;;;;;;4.05;3.25;;;32.20;99.10;;;;;;4110832;28;20082;-68
2021/09/07 10:52:31;;;;;;;5.95;3.60;;;32.20;99.40;;;;;;4108978;28;20552;-68
2021/09/07 10:54:50;;;;;;;5.78;3.88;;;32.10;99.70;;;;;;4110937;28;20130;-70
2021/09/07 10:57:57;;;;;;;6.00;3.70;;;32.00;99.90;;;;;;4088278;29;20075;-69
2021/09/07 11:00:34;;;;;;;5.80;3.47;;;32.00;99.90;;;;;;4088357;29;20548;-70
2021/09/07 11:03:25;;;;;;;4.85;3.50;;;32.00;99.90;;;;;;4053432;29;20059;-70
2021/09/07 11:05:55;;;;;;;5.78;3.10;;;31.90;99.90;;;;;;4047229;29;20068;-70
2021/09/07 11:08:43;;;;;;;3.35;3.00;;;31.90;99.90;;;;;;4047198;29;20071;-70